Terminal Aerodrome Forecast
Issued by NWS

Home | Current Version | Previous Version | Text Only | Print | Product List | Glossary On
Versions: 1 2 3 4 5 6 7 8 9 10 11 12
989
FTUS45 KVEF 281127
TAFDAG
TAF
KDAG 281127Z 2812/2912 27008KT P6SM SKC
     FM282100 VRB06KT P6SM FEW250
     FM290000 25010KT P6SM FEW250=

USA.gov is the U.S. government's official web portal to all federal, state and local government web resources and services.